sensor_id;sensor_type;location;lat;lon;timestamp;temperature;humidity
3172;DHT22;1597;51.572;6.992;2022-08-25T00:01:23;24.90;1.00
3172;DHT22;1597;51.572;6.992;2022-08-25T00:03:51;25.00;1.00
3172;DHT22;1597;51.572;6.992;2022-08-25T00:06:17;24.90;1.00
3172;DHT22;1597;51.572;6.992;2022-08-25T00:08:43;24.90;1.00
3172;DHT22;1597;51.572;6.992;2022-08-25T00:11:18;24.90;1.00
3172;DHT22;1597;51.572;6.992;2022-08-25T00:13:49;24.90;1.00
3172;DHT22;1597;51.572;6.992;2022-08-25T00:16:18;24.90;1.00
3172;DHT22;1597;51.572;6.992;2022-08-25T00:18:48;24.90;1.00
3172;DHT22;1597;51.572;6.992;2022-08-25T00:21:16;24.90;1.00
3172;DHT22;1597;51.572;6.992;2022-08-25T00:23:43;24.80;1.00
3172;DHT22;1597;51.572;6.992;2022-08-25T00:26:11;24.90;1.00
3172;DHT22;1597;51.572;6.992;2022-08-25T00:28:37;24.80;1.00
3172;DHT22;1597;51.572;6.992;2022-08-25T00:31:05;24.80;1.00
3172;DHT22;1597;51.572;6.992;2022-08-25T00:33:31;24.80;1.00
3172;DHT22;1597;51.572;6.992;2022-08-25T00:35:58;24.80;1.00
3172;DHT22;1597;51.572;6.992;2022-08-25T00:38:26;24.70;1.00
3172;DHT22;1597;51.572;6.992;2022-08-25T00:40:52;24.80;1.00
3172;DHT22;1597;51.572;6.992;2022-08-25T00:43:56;24.70;1.00
3172;DHT22;1597;51.572;6.992;2022-08-25T00:46:42;24.70;1.00
3172;DHT22;1597;51.572;6.992;2022-08-25T00:49:22;24.60;1.00
3172;DHT22;1597;51.572;6.992;2022-08-25T00:51:59;24.60;1.00
3172;DHT22;1597;51.572;6.992;2022-08-25T00:54:33;24.60;1.00
3172;DHT22;1597;51.572;6.992;2022-08-25T00:57:05;24.60;1.00
3172;DHT22;1597;51.572;6.992;2022-08-25T00:59:31;24.50;1.00
3172;DHT22;1597;51.572;6.992;2022-08-25T01:01:58;24.50;1.00
3172;DHT22;1597;51.572;6.992;2022-08-25T01:04:24;24.50;1.00
3172;DHT22;1597;51.572;6.992;2022-08-25T01:06:51;24.50;1.00
3172;DHT22;1597;51.572;6.992;2022-08-25T01:09:18;24.40;1.00
3172;DHT22;1597;51.572;6.992;2022-08-25T01:11:45;24.40;1.00
3172;DHT22;1597;51.572;6.992;2022-08-25T01:14:15;24.40;1.00
3172;DHT22;1597;51.572;6.992;2022-08-25T01:16:43;24.40;1.00
3172;DHT22;1597;51.572;6.992;2022-08-25T01:19:12;24.30;1.00
3172;DHT22;1597;51.572;6.992;2022-08-25T01:21:46;24.30;1.00
3172;DHT22;1597;51.572;6.992;2022-08-25T01:27:17;24.20;1.00
3172;DHT22;1597;51.572;6.992;2022-08-25T01:29:43;24.20;1.00
3172;DHT22;1597;51.572;6.992;2022-08-25T01:32:11;24.10;1.00
3172;DHT22;1597;51.572;6.992;2022-08-25T01:34:40;24.10;1.00
3172;DHT22;1597;51.572;6.992;2022-08-25T01:37:09;24.10;1.00
3172;DHT22;1597;51.572;6.992;2022-08-25T01:39:36;24.10;1.00
3172;DHT22;1597;51.572;6.992;2022-08-25T01:42:13;24.10;1.00
3172;DHT22;1597;51.572;6.992;2022-08-25T01:44:46;24.00;1.00
3172;DHT22;1597;51.572;6.992;2022-08-25T01:47:14;24.00;1.00
3172;DHT22;1597;51.572;6.992;2022-08-25T01:49:40;24.00;1.00
3172;DHT22;1597;51.572;6.992;2022-08-25T01:54:50;23.90;1.00
3172;DHT22;1597;51.572;6.992;2022-08-25T01:57:16;23.90;1.00
3172;DHT22;1597;51.572;6.992;2022-08-25T01:59:42;23.90;1.00
3172;DHT22;1597;51.572;6.992;2022-08-25T02:02:09;23.90;1.00
3172;DHT22;1597;51.572;6.992;2022-08-25T02:04:35;23.90;1.00
3172;DHT22;1597;51.572;6.992;2022-08-25T02:07:05;23.90;1.00
3172;DHT22;1597;51.572;6.992;2022-08-25T02:09:32;23.80;1.00
3172;DHT22;1597;51.572;6.992;2022-08-25T02:11:58;23.80;1.00
3172;DHT22;1597;51.572;6.992;2022-08-25T02:14:24;23.80;1.00
3172;DHT22;1597;51.572;6.992;2022-08-25T02:16:51;23.70;1.00
3172;DHT22;1597;51.572;6.992;2022-08-25T02:19:18;23.70;1.00
3172;DHT22;1597;51.572;6.992;2022-08-25T02:21:45;23.70;1.00
3172;DHT22;1597;51.572;6.992;2022-08-25T02:24:11;23.60;1.00
3172;DHT22;1597;51.572;6.992;2022-08-25T02:26:37;23.60;1.00
3172;DHT22;1597;51.572;6.992;2022-08-25T02:29:04;23.60;1.00
3172;DHT22;1597;51.572;6.992;2022-08-25T02:31:31;23.60;1.00
3172;DHT22;1597;51.572;6.992;2022-08-25T02:33:58;23.50;1.00
3172;DHT22;1597;51.572;6.992;2022-08-25T02:36:24;23.50;1.00
3172;DHT22;1597;51.572;6.992;2022-08-25T02:38:50;23.50;1.00
3172;DHT22;1597;51.572;6.992;2022-08-25T02:41:21;23.50;1.00
3172;DHT22;1597;51.572;6.992;2022-08-25T02:43:49;23.50;1.00
3172;DHT22;1597;51.572;6.992;2022-08-25T02:46:17;23.50;1.00
3172;DHT22;1597;51.572;6.992;2022-08-25T02:48:45;23.40;1.00
3172;DHT22;1597;51.572;6.992;2022-08-25T02:51:12;23.40;1.00
3172;DHT22;1597;51.572;6.992;2022-08-25T02:53:40;23.40;1.00
3172;DHT22;1597;51.572;6.992;2022-08-25T02:56:09;23.40;1.00
3172;DHT22;1597;51.572;6.992;2022-08-25T02:58:38;23.40;1.00
3172;DHT22;1597;51.572;6.992;2022-08-25T03:01:05;23.30;1.00
3172;DHT22;1597;51.572;6.992;2022-08-25T03:03:32;23.30;1.00
3172;DHT22;1597;51.572;6.992;2022-08-25T03:05:59;23.30;1.00
3172;DHT22;1597;51.572;6.992;2022-08-25T03:08:25;23.20;1.00
3172;DHT22;1597;51.572;6.992;2022-08-25T03:10:51;23.20;1.00
3172;DHT22;1597;51.572;6.992;2022-08-25T03:13:17;23.20;1.00
3172;DHT22;1597;51.572;6.992;2022-08-25T03:15:43;23.20;1.00
3172;DHT22;1597;51.572;6.992;2022-08-25T03:18:10;23.20;1.00
3172;DHT22;1597;51.572;6.992;2022-08-25T03:20:37;23.20;1.00
3172;DHT22;1597;51.572;6.992;2022-08-25T03:23:04;23.20;1.00
3172;DHT22;1597;51.572;6.992;2022-08-25T03:25:30;23.20;1.00
3172;DHT22;1597;51.572;6.992;2022-08-25T03:28:16;23.20;1.00
3172;DHT22;1597;51.572;6.992;2022-08-25T03:30:42;23.20;1.00
3172;DHT22;1597;51.572;6.992;2022-08-25T03:33:10;23.10;1.00
3172;DHT22;1597;51.572;6.992;2022-08-25T03:35:36;23.10;1.00
3172;DHT22;1597;51.572;6.992;2022-08-25T03:38:02;23.10;1.00
3172;DHT22;1597;51.572;6.992;2022-08-25T03:40:28;23.10;1.00
3172;DHT22;1597;51.572;6.992;2022-08-25T03:42:55;23.10;1.00
3172;DHT22;1597;51.572;6.992;2022-08-25T03:45:22;23.10;1.00
3172;DHT22;1597;51.572;6.992;2022-08-25T03:47:53;23.00;1.00
3172;DHT22;1597;51.572;6.992;2022-08-25T03:50:20;23.00;1.00
3172;DHT22;1597;51.572;6.992;2022-08-25T03:53:04;23.00;1.00
3172;DHT22;1597;51.572;6.992;2022-08-25T03:55:32;23.00;1.00
3172;DHT22;1597;51.572;6.992;2022-08-25T03:57:58;22.90;1.00
3172;DHT22;1597;51.572;6.992;2022-08-25T04:00:24;22.90;1.00
3172;DHT22;1597;51.572;6.992;2022-08-25T04:02:50;22.90;1.00
3172;DHT22;1597;51.572;6.992;2022-08-25T04:05:17;22.90;1.00
3172;DHT22;1597;51.572;6.992;2022-08-25T04:07:44;22.90;1.00
3172;DHT22;1597;51.572;6.992;2022-08-25T04:10:11;22.90;1.00
3172;DHT22;1597;51.572;6.992;2022-08-25T04:12:37;22.90;1.00
3172;DHT22;1597;51.572;6.992;2022-08-25T04:15:05;22.80;1.00
3172;DHT22;1597;51.572;6.992;2022-08-25T04:17:31;22.80;1.00
3172;DHT22;1597;51.572;6.992;2022-08-25T04:19:57;22.70;1.00
3172;DHT22;1597;51.572;6.992;2022-08-25T04:22:24;22.70;1.00
3172;DHT22;1597;51.572;6.992;2022-08-25T04:24:50;22.70;1.00
3172;DHT22;1597;51.572;6.992;2022-08-25T04:27:15;22.70;1.00
3172;DHT22;1597;51.572;6.992;2022-08-25T04:29:41;22.70;1.00
3172;DHT22;1597;51.572;6.992;2022-08-25T04:32:07;22.60;1.00
3172;DHT22;1597;51.572;6.992;2022-08-25T04:34:33;22.50;1.00
3172;DHT22;1597;51.572;6.992;2022-08-25T04:37:01;22.40;1.00
3172;DHT22;1597;51.572;6.992;2022-08-25T04:39:30;22.40;1.00
3172;DHT22;1597;51.572;6.992;2022-08-25T04:41:56;22.40;1.00
3172;DHT22;1597;51.572;6.992;2022-08-25T04:44:22;22.40;1.00
3172;DHT22;1597;51.572;6.992;2022-08-25T04:46:47;22.30;1.00
3172;DHT22;1597;51.572;6.992;2022-08-25T04:49:14;22.40;1.00
3172;DHT22;1597;51.572;6.992;2022-08-25T04:51:41;22.30;1.00
3172;DHT22;1597;51.572;6.992;2022-08-25T04:54:11;22.30;1.00
3172;DHT22;1597;51.572;6.992;2022-08-25T04:56:42;22.30;1.00
3172;DHT22;1597;51.572;6.992;2022-08-25T04:59:10;22.20;1.00
3172;DHT22;1597;51.572;6.992;2022-08-25T05:01:38;22.10;1.00
3172;DHT22;1597;51.572;6.992;2022-08-25T05:04:08;22.10;1.00
3172;DHT22;1597;51.572;6.992;2022-08-25T05:06:36;22.10;1.00
3172;DHT22;1597;51.572;6.992;2022-08-25T05:09:03;22.10;1.00
3172;DHT22;1597;51.572;6.992;2022-08-25T05:11:29;22.10;1.00
3172;DHT22;1597;51.572;6.992;2022-08-25T05:13:55;22.10;1.00
3172;DHT22;1597;51.572;6.992;2022-08-25T05:16:24;22.20;1.00
3172;DHT22;1597;51.572;6.992;2022-08-25T05:18:51;22.20;1.00
3172;DHT22;1597;51.572;6.992;2022-08-25T05:21:20;22.30;1.00
3172;DHT22;1597;51.572;6.992;2022-08-25T05:23:48;22.30;1.00
3172;DHT22;1597;51.572;6.992;2022-08-25T05:26:20;22.30;1.00
3172;DHT22;1597;51.572;6.992;2022-08-25T05:28:48;22.30;1.00
3172;DHT22;1597;51.572;6.992;2022-08-25T05:31:15;22.40;1.00
3172;DHT22;1597;51.572;6.992;2022-08-25T05:33:42;22.40;1.00
3172;DHT22;1597;51.572;6.992;2022-08-25T05:36:10;22.60;1.00
3172;DHT22;1597;51.572;6.992;2022-08-25T05:38:38;22.60;1.00
3172;DHT22;1597;51.572;6.992;2022-08-25T05:41:08;22.60;1.00
3172;DHT22;1597;51.572;6.992;2022-08-25T05:43:36;22.70;1.00
3172;DHT22;1597;51.572;6.992;2022-08-25T05:46:04;22.70;1.00
3172;DHT22;1597;51.572;6.992;2022-08-25T05:48:30;22.70;1.00
3172;DHT22;1597;51.572;6.992;2022-08-25T05:50:58;22.80;1.00
3172;DHT22;1597;51.572;6.992;2022-08-25T05:53:26;22.90;1.00
3172;DHT22;1597;51.572;6.992;2022-08-25T05:55:55;22.90;1.00
3172;DHT22;1597;51.572;6.992;2022-08-25T05:58:23;22.90;1.00
3172;DHT22;1597;51.572;6.992;2022-08-25T06:00:50;22.90;1.00
3172;DHT22;1597;51.572;6.992;2022-08-25T06:03:16;23.00;1.00
3172;DHT22;1597;51.572;6.992;2022-08-25T06:05:43;23.00;1.00
3172;DHT22;1597;51.572;6.992;2022-08-25T06:08:09;23.00;1.00
3172;DHT22;1597;51.572;6.992;2022-08-25T06:10:35;23.00;1.00
3172;DHT22;1597;51.572;6.992;2022-08-25T06:13:02;22.90;1.00
3172;DHT22;1597;51.572;6.992;2022-08-25T06:15:30;22.90;1.00
3172;DHT22;1597;51.572;6.992;2022-08-25T06:17:57;22.90;1.00
3172;DHT22;1597;51.572;6.992;2022-08-25T06:20:28;22.90;1.00
3172;DHT22;1597;51.572;6.992;2022-08-25T06:22:55;23.00;1.00
3172;DHT22;1597;51.572;6.992;2022-08-25T06:25:24;23.00;1.00
3172;DHT22;1597;51.572;6.992;2022-08-25T06:27:51;23.10;1.00
3172;DHT22;1597;51.572;6.992;2022-08-25T06:30:20;23.10;1.00
3172;DHT22;1597;51.572;6.992;2022-08-25T06:32:47;23.10;1.00
3172;DHT22;1597;51.572;6.992;2022-08-25T06:35:17;23.20;1.00
3172;DHT22;1597;51.572;6.992;2022-08-25T06:37:45;23.20;1.00
3172;DHT22;1597;51.572;6.992;2022-08-25T06:40:13;23.30;1.00
3172;DHT22;1597;51.572;6.992;2022-08-25T06:42:41;23.30;1.00
3172;DHT22;1597;51.572;6.992;2022-08-25T06:45:09;23.40;1.00
3172;DHT22;1597;51.572;6.992;2022-08-25T06:47:35;23.40;1.00
3172;DHT22;1597;51.572;6.992;2022-08-25T06:50:01;23.50;1.00
3172;DHT22;1597;51.572;6.992;2022-08-25T06:52:28;23.50;1.00
3172;DHT22;1597;51.572;6.992;2022-08-25T06:54:54;23.50;1.00
3172;DHT22;1597;51.572;6.992;2022-08-25T06:57:20;23.60;1.00
3172;DHT22;1597;51.572;6.992;2022-08-25T06:59:45;23.60;1.00
3172;DHT22;1597;51.572;6.992;2022-08-25T07:02:11;23.70;1.00
3172;DHT22;1597;51.572;6.992;2022-08-25T07:04:37;23.70;1.00
3172;DHT22;1597;51.572;6.992;2022-08-25T07:07:03;23.80;1.00
3172;DHT22;1597;51.572;6.992;2022-08-25T07:09:29;23.80;1.00
3172;DHT22;1597;51.572;6.992;2022-08-25T07:11:55;23.90;1.00
3172;DHT22;1597;51.572;6.992;2022-08-25T07:14:21;23.90;1.00
3172;DHT22;1597;51.572;6.992;2022-08-25T07:16:47;24.00;1.00
3172;DHT22;1597;51.572;6.992;2022-08-25T07:19:13;24.20;1.00
3172;DHT22;1597;51.572;6.992;2022-08-25T07:21:41;24.10;1.00
3172;DHT22;1597;51.572;6.992;2022-08-25T07:24:11;24.20;1.00
3172;DHT22;1597;51.572;6.992;2022-08-25T07:26:39;24.20;1.00
3172;DHT22;1597;51.572;6.992;2022-08-25T07:29:16;24.30;1.00
3172;DHT22;1597;51.572;6.992;2022-08-25T07:31:46;24.40;1.00
3172;DHT22;1597;51.572;6.992;2022-08-25T07:34:12;24.50;1.00
3172;DHT22;1597;51.572;6.992;2022-08-25T07:36:57;24.60;1.00
3172;DHT22;1597;51.572;6.992;2022-08-25T07:39:24;24.60;1.00
3172;DHT22;1597;51.572;6.992;2022-08-25T07:41:52;24.70;1.00
3172;DHT22;1597;51.572;6.992;2022-08-25T07:44:18;24.70;1.00
3172;DHT22;1597;51.572;6.992;2022-08-25T07:46:46;24.80;1.00
3172;DHT22;1597;51.572;6.992;2022-08-25T07:49:12;24.90;1.00
3172;DHT22;1597;51.572;6.992;2022-08-25T07:51:38;24.90;1.00
3172;DHT22;1597;51.572;6.992;2022-08-25T07:54:05;24.90;1.00
3172;DHT22;1597;51.572;6.992;2022-08-25T07:56:30;25.00;1.00
3172;DHT22;1597;51.572;6.992;2022-08-25T07:58:56;25.10;1.00
3172;DHT22;1597;51.572;6.992;2022-08-25T08:01:23;25.10;1.00
3172;DHT22;1597;51.572;6.992;2022-08-25T08:03:51;25.20;1.00
3172;DHT22;1597;51.572;6.992;2022-08-25T08:06:20;25.20;1.00
3172;DHT22;1597;51.572;6.992;2022-08-25T08:08:49;25.30;1.00
3172;DHT22;1597;51.572;6.992;2022-08-25T08:11:20;25.40;1.00
3172;DHT22;1597;51.572;6.992;2022-08-25T08:13:48;25.40;1.00
3172;DHT22;1597;51.572;6.992;2022-08-25T08:16:16;25.50;1.00
3172;DHT22;1597;51.572;6.992;2022-08-25T08:18:44;25.50;1.00
3172;DHT22;1597;51.572;6.992;2022-08-25T08:21:16;25.60;1.00
3172;DHT22;1597;51.572;6.992;2022-08-25T08:23:42;25.60;1.00
3172;DHT22;1597;51.572;6.992;2022-08-25T08:26:08;25.70;1.00
3172;DHT22;1597;51.572;6.992;2022-08-25T08:28:34;25.70;1.00
3172;DHT22;1597;51.572;6.992;2022-08-25T08:31:00;25.80;1.00
3172;DHT22;1597;51.572;6.992;2022-08-25T08:33:26;25.80;1.00
3172;DHT22;1597;51.572;6.992;2022-08-25T08:36:02;25.90;1.00
3172;DHT22;1597;51.572;6.992;2022-08-25T08:38:32;26.00;1.00
3172;DHT22;1597;51.572;6.992;2022-08-25T08:41:05;26.00;1.00
3172;DHT22;1597;51.572;6.992;2022-08-25T08:47:51;26.20;1.00
3172;DHT22;1597;51.572;6.992;2022-08-25T08:56:13;26.40;1.00
3172;DHT22;1597;51.572;6.992;2022-08-25T09:01:32;26.60;1.00
3172;DHT22;1597;51.572;6.992;2022-08-25T09:04:10;26.70;1.00
3172;DHT22;1597;51.572;6.992;2022-08-25T09:06:45;26.70;1.00
3172;DHT22;1597;51.572;6.992;2022-08-25T09:09:26;26.80;1.00
3172;DHT22;1597;51.572;6.992;2022-08-25T09:15:20;26.90;1.00
3172;DHT22;1597;51.572;6.992;2022-08-25T09:18:25;26.90;1.00
3172;DHT22;1597;51.572;6.992;2022-08-25T09:26:44;27.10;1.00
3172;DHT22;1597;51.572;6.992;2022-08-25T09:29:23;27.20;1.00
3172;DHT22;1597;51.572;6.992;2022-08-25T09:31:57;27.20;1.00
3172;DHT22;1597;51.572;6.992;2022-08-25T09:34:29;27.30;1.00
3172;DHT22;1597;51.572;6.992;2022-08-25T09:36:58;27.30;1.00
3172;DHT22;1597;51.572;6.992;2022-08-25T09:39:24;27.50;1.00
3172;DHT22;1597;51.572;6.992;2022-08-25T09:41:53;27.50;1.00
3172;DHT22;1597;51.572;6.992;2022-08-25T09:44:33;27.60;1.00
3172;DHT22;1597;51.572;6.992;2022-08-25T09:47:13;27.60;1.00
3172;DHT22;1597;51.572;6.992;2022-08-25T09:49:43;27.60;1.00
3172;DHT22;1597;51.572;6.992;2022-08-25T09:55:01;27.70;1.00
3172;DHT22;1597;51.572;6.992;2022-08-25T09:57:59;27.80;1.00
3172;DHT22;1597;51.572;6.992;2022-08-25T10:00:32;27.90;1.00
3172;DHT22;1597;51.572;6.992;2022-08-25T10:03:12;28.00;1.00
3172;DHT22;1597;51.572;6.992;2022-08-25T10:06:32;28.10;1.00
3172;DHT22;1597;51.572;6.992;2022-08-25T10:11:40;28.20;1.00
3172;DHT22;1597;51.572;6.992;2022-08-25T10:16:49;28.30;1.00
3172;DHT22;1597;51.572;6.992;2022-08-25T10:19:25;28.30;1.00
3172;DHT22;1597;51.572;6.992;2022-08-25T10:22:08;28.30;1.00
3172;DHT22;1597;51.572;6.992;2022-08-25T10:24:48;28.40;1.00
3172;DHT22;1597;51.572;6.992;2022-08-25T10:33:03;28.40;1.00
3172;DHT22;1597;51.572;6.992;2022-08-25T10:36:01;28.60;1.00
3172;DHT22;1597;51.572;6.992;2022-08-25T10:38:59;28.70;1.00
3172;DHT22;1597;51.572;6.992;2022-08-25T10:47:43;28.90;1.00
3172;DHT22;1597;51.572;6.992;2022-08-25T10:50:32;29.00;1.00
3172;DHT22;1597;51.572;6.992;2022-08-25T10:56:02;29.10;1.00
3172;DHT22;1597;51.572;6.992;2022-08-25T10:58:52;29.20;1.00
3172;DHT22;1597;51.572;6.992;2022-08-25T11:01:53;29.20;1.00
3172;DHT22;1597;51.572;6.992;2022-08-25T11:07:46;29.10;1.00
3172;DHT22;1597;51.572;6.992;2022-08-25T11:10:25;29.20;1.00
3172;DHT22;1597;51.572;6.992;2022-08-25T11:13:09;29.20;1.00
3172;DHT22;1597;51.572;6.992;2022-08-25T11:15:50;29.30;1.00
3172;DHT22;1597;51.572;6.992;2022-08-25T11:18:21;29.40;1.00
3172;DHT22;1597;51.572;6.992;2022-08-25T11:21:02;29.40;1.00
3172;DHT22;1597;51.572;6.992;2022-08-25T11:23:45;29.50;1.00
3172;DHT22;1597;51.572;6.992;2022-08-25T11:26:22;29.50;1.00
3172;DHT22;1597;51.572;6.992;2022-08-25T11:29:02;29.50;1.00
3172;DHT22;1597;51.572;6.992;2022-08-25T11:31:38;29.60;1.00
3172;DHT22;1597;51.572;6.992;2022-08-25T11:34:09;29.70;1.00
3172;DHT22;1597;51.572;6.992;2022-08-25T11:36:56;29.80;1.00
3172;DHT22;1597;51.572;6.992;2022-08-25T11:45:39;29.80;1.00
3172;DHT22;1597;51.572;6.992;2022-08-25T11:48:44;29.80;1.00
3172;DHT22;1597;51.572;6.992;2022-08-25T11:51:34;29.80;1.00
3172;DHT22;1597;51.572;6.992;2022-08-25T11:56:59;29.90;1.00
3172;DHT22;1597;51.572;6.992;2022-08-25T12:02:34;30.10;1.00
3172;DHT22;1597;51.572;6.992;2022-08-25T12:05:48;30.20;1.00
3172;DHT22;1597;51.572;6.992;2022-08-25T12:10:58;29.80;1.00
3172;DHT22;1597;51.572;6.992;2022-08-25T12:16:06;30.30;1.00
3172;DHT22;1597;51.572;6.992;2022-08-25T12:23:40;30.20;1.00
3172;DHT22;1597;51.572;6.992;2022-08-25T12:26:11;30.20;1.00
3172;DHT22;1597;51.572;6.992;2022-08-25T12:37:21;30.40;1.00
3172;DHT22;1597;51.572;6.992;2022-08-25T12:42:37;30.50;1.00
3172;DHT22;1597;51.572;6.992;2022-08-25T12:47:52;30.70;1.00
3172;DHT22;1597;51.572;6.992;2022-08-25T12:50:43;30.80;1.00
3172;DHT22;1597;51.572;6.992;2022-08-25T12:53:21;30.80;1.00
3172;DHT22;1597;51.572;6.992;2022-08-25T12:56:00;30.80;1.00
3172;DHT22;1597;51.572;6.992;2022-08-25T12:59:07;30.80;1.00
3172;DHT22;1597;51.572;6.992;2022-08-25T13:04:42;30.70;1.00
3172;DHT22;1597;51.572;6.992;2022-08-25T13:07:22;30.70;1.00
3172;DHT22;1597;51.572;6.992;2022-08-25T13:10:14;30.70;1.00
3172;DHT22;1597;51.572;6.992;2022-08-25T13:12:59;30.60;1.00
3172;DHT22;1597;51.572;6.992;2022-08-25T13:16:01;30.50;1.00
3172;DHT22;1597;51.572;6.992;2022-08-25T13:18:31;30.60;1.00
3172;DHT22;1597;51.572;6.992;2022-08-25T13:21:03;30.80;1.00
3172;DHT22;1597;51.572;6.992;2022-08-25T13:23:34;30.70;1.00
3172;DHT22;1597;51.572;6.992;2022-08-25T13:26:02;30.70;1.00
3172;DHT22;1597;51.572;6.992;2022-08-25T13:28:32;30.70;1.00
3172;DHT22;1597;51.572;6.992;2022-08-25T13:31:20;30.60;1.00
3172;DHT22;1597;51.572;6.992;2022-08-25T13:33:57;30.80;1.00
3172;DHT22;1597;51.572;6.992;2022-08-25T13:36:30;30.90;1.00
3172;DHT22;1597;51.572;6.992;2022-08-25T13:39:22;31.00;1.00
3172;DHT22;1597;51.572;6.992;2022-08-25T13:41:54;31.00;1.00
3172;DHT22;1597;51.572;6.992;2022-08-25T13:44:23;31.00;1.00
3172;DHT22;1597;51.572;6.992;2022-08-25T13:47:13;31.00;1.00
3172;DHT22;1597;51.572;6.992;2022-08-25T13:49:43;31.00;1.00
3172;DHT22;1597;51.572;6.992;2022-08-25T13:52:24;31.20;1.00
3172;DHT22;1597;51.572;6.992;2022-08-25T13:54:57;31.30;1.00
3172;DHT22;1597;51.572;6.992;2022-08-25T13:57:27;31.40;1.00
3172;DHT22;1597;51.572;6.992;2022-08-25T14:00:07;31.40;1.00
3172;DHT22;1597;51.572;6.992;2022-08-25T14:02:45;31.50;1.00
3172;DHT22;1597;51.572;6.992;2022-08-25T14:05:15;31.50;1.00
3172;DHT22;1597;51.572;6.992;2022-08-25T14:07:56;31.50;1.00
3172;DHT22;1597;51.572;6.992;2022-08-25T14:10:37;31.60;1.00
3172;DHT22;1597;51.572;6.992;2022-08-25T14:15:52;31.40;1.00
3172;DHT22;1597;51.572;6.992;2022-08-25T14:18:29;31.30;1.00
3172;DHT22;1597;51.572;6.992;2022-08-25T14:20:58;31.20;1.00
3172;DHT22;1597;51.572;6.992;2022-08-25T14:23:28;31.00;1.00
3172;DHT22;1597;51.572;6.992;2022-08-25T14:25:56;31.40;1.00
3172;DHT22;1597;51.572;6.992;2022-08-25T14:28:27;31.10;1.00
3172;DHT22;1597;51.572;6.992;2022-08-25T14:30:57;31.00;1.00
3172;DHT22;1597;51.572;6.992;2022-08-25T14:33:33;30.90;1.00
3172;DHT22;1597;51.572;6.992;2022-08-25T14:36:02;30.80;1.00
3172;DHT22;1597;51.572;6.992;2022-08-25T14:38:29;30.80;1.00
3172;DHT22;1597;51.572;6.992;2022-08-25T14:40:55;30.70;1.00
3172;DHT22;1597;51.572;6.992;2022-08-25T14:43:22;30.80;1.00
3172;DHT22;1597;51.572;6.992;2022-08-25T14:45:48;30.80;1.00
3172;DHT22;1597;51.572;6.992;2022-08-25T14:48:38;30.80;1.00
3172;DHT22;1597;51.572;6.992;2022-08-25T14:51:05;30.80;1.00
3172;DHT22;1597;51.572;6.992;2022-08-25T14:53:32;30.90;1.00
3172;DHT22;1597;51.572;6.992;2022-08-25T14:55:58;30.90;1.00
3172;DHT22;1597;51.572;6.992;2022-08-25T14:58:24;30.90;1.00
3172;DHT22;1597;51.572;6.992;2022-08-25T15:00:50;31.00;1.00
3172;DHT22;1597;51.572;6.992;2022-08-25T15:03:31;31.00;1.00
3172;DHT22;1597;51.572;6.992;2022-08-25T15:06:00;31.00;1.00
3172;DHT22;1597;51.572;6.992;2022-08-25T15:08:26;31.10;1.00
3172;DHT22;1597;51.572;6.992;2022-08-25T15:11:10;31.20;1.00
3172;DHT22;1597;51.572;6.992;2022-08-25T15:13:37;31.20;1.00
3172;DHT22;1597;51.572;6.992;2022-08-25T15:16:03;31.20;1.00
3172;DHT22;1597;51.572;6.992;2022-08-25T15:18:30;31.20;1.00
3172;DHT22;1597;51.572;6.992;2022-08-25T15:20:56;31.10;1.00
3172;DHT22;1597;51.572;6.992;2022-08-25T15:23:22;31.10;1.00
3172;DHT22;1597;51.572;6.992;2022-08-25T15:25:49;31.10;1.00
3172;DHT22;1597;51.572;6.992;2022-08-25T15:28:15;31.20;1.00
3172;DHT22;1597;51.572;6.992;2022-08-25T15:30:41;31.20;1.00
3172;DHT22;1597;51.572;6.992;2022-08-25T15:33:07;31.20;1.00
3172;DHT22;1597;51.572;6.992;2022-08-25T15:35:33;31.20;1.00
3172;DHT22;1597;51.572;6.992;2022-08-25T15:37:59;31.10;1.00
3172;DHT22;1597;51.572;6.992;2022-08-25T15:40:27;31.20;1.00
3172;DHT22;1597;51.572;6.992;2022-08-25T15:42:53;31.20;1.00
3172;DHT22;1597;51.572;6.992;2022-08-25T15:45:19;31.20;1.00
3172;DHT22;1597;51.572;6.992;2022-08-25T15:47:45;31.10;1.00
3172;DHT22;1597;51.572;6.992;2022-08-25T15:50:14;31.00;1.00
3172;DHT22;1597;51.572;6.992;2022-08-25T15:52:41;31.00;1.00
3172;DHT22;1597;51.572;6.992;2022-08-25T15:55:09;31.10;1.00
3172;DHT22;1597;51.572;6.992;2022-08-25T15:57:35;31.00;1.00
3172;DHT22;1597;51.572;6.992;2022-08-25T16:00:03;31.00;1.00
3172;DHT22;1597;51.572;6.992;2022-08-25T16:02:30;30.90;1.00
3172;DHT22;1597;51.572;6.992;2022-08-25T16:04:57;30.90;1.00
3172;DHT22;1597;51.572;6.992;2022-08-25T16:07:23;30.80;1.00
3172;DHT22;1597;51.572;6.992;2022-08-25T16:09:49;30.80;1.00
3172;DHT22;1597;51.572;6.992;2022-08-25T16:12:14;30.80;1.00
3172;DHT22;1597;51.572;6.992;2022-08-25T16:14:40;30.80;1.00
3172;DHT22;1597;51.572;6.992;2022-08-25T16:17:06;30.80;1.00
3172;DHT22;1597;51.572;6.992;2022-08-25T16:19:32;30.70;1.00
3172;DHT22;1597;51.572;6.992;2022-08-25T16:21:58;30.70;1.00
3172;DHT22;1597;51.572;6.992;2022-08-25T16:24:26;30.60;1.00
3172;DHT22;1597;51.572;6.992;2022-08-25T16:26:52;30.60;1.00
3172;DHT22;1597;51.572;6.992;2022-08-25T16:29:18;30.60;1.00
3172;DHT22;1597;51.572;6.992;2022-08-25T16:31:44;30.50;1.00
3172;DHT22;1597;51.572;6.992;2022-08-25T16:34:10;30.50;1.00
3172;DHT22;1597;51.572;6.992;2022-08-25T16:36:37;30.50;1.00
3172;DHT22;1597;51.572;6.992;2022-08-25T16:39:04;30.40;1.00
3172;DHT22;1597;51.572;6.992;2022-08-25T16:41:31;30.40;1.00
3172;DHT22;1597;51.572;6.992;2022-08-25T16:44:02;30.30;1.00
3172;DHT22;1597;51.572;6.992;2022-08-25T16:46:32;30.30;1.00
3172;DHT22;1597;51.572;6.992;2022-08-25T16:49:00;30.30;1.00
3172;DHT22;1597;51.572;6.992;2022-08-25T16:51:27;30.30;1.00
3172;DHT22;1597;51.572;6.992;2022-08-25T16:53:54;30.30;1.00
3172;DHT22;1597;51.572;6.992;2022-08-25T16:56:39;30.30;1.00
3172;DHT22;1597;51.572;6.992;2022-08-25T16:59:08;30.20;1.00
3172;DHT22;1597;51.572;6.992;2022-08-25T17:01:36;30.20;1.00
3172;DHT22;1597;51.572;6.992;2022-08-25T17:04:04;30.30;1.00
3172;DHT22;1597;51.572;6.992;2022-08-25T17:06:34;30.20;1.00
3172;DHT22;1597;51.572;6.992;2022-08-25T17:09:03;30.20;1.00
3172;DHT22;1597;51.572;6.992;2022-08-25T17:11:31;30.20;1.00
3172;DHT22;1597;51.572;6.992;2022-08-25T17:14:01;30.10;1.00
3172;DHT22;1597;51.572;6.992;2022-08-25T17:16:31;30.10;1.00
3172;DHT22;1597;51.572;6.992;2022-08-25T17:19:00;30.10;1.00
3172;DHT22;1597;51.572;6.992;2022-08-25T17:21:32;30.00;1.00
3172;DHT22;1597;51.572;6.992;2022-08-25T17:24:01;30.00;1.00
3172;DHT22;1597;51.572;6.992;2022-08-25T17:26:28;29.90;1.00
3172;DHT22;1597;51.572;6.992;2022-08-25T17:28:56;29.90;1.00
3172;DHT22;1597;51.572;6.992;2022-08-25T17:31:23;29.90;1.00
3172;DHT22;1597;51.572;6.992;2022-08-25T17:33:48;29.80;1.00
3172;DHT22;1597;51.572;6.992;2022-08-25T17:36:14;29.80;1.00
3172;DHT22;1597;51.572;6.992;2022-08-25T17:38:41;29.80;1.00
3172;DHT22;1597;51.572;6.992;2022-08-25T17:41:08;29.80;1.00
3172;DHT22;1597;51.572;6.992;2022-08-25T17:43:39;29.80;1.00
3172;DHT22;1597;51.572;6.992;2022-08-25T17:46:08;29.80;1.00
3172;DHT22;1597;51.572;6.992;2022-08-25T17:48:36;29.80;1.00
3172;DHT22;1597;51.572;6.992;2022-08-25T17:51:03;29.80;1.00
3172;DHT22;1597;51.572;6.992;2022-08-25T17:53:31;29.70;1.00
3172;DHT22;1597;51.572;6.992;2022-08-25T17:56:06;29.70;1.00
3172;DHT22;1597;51.572;6.992;2022-08-25T17:58:35;29.70;1.00
3172;DHT22;1597;51.572;6.992;2022-08-25T18:01:01;29.60;1.00
3172;DHT22;1597;51.572;6.992;2022-08-25T18:03:29;29.50;1.00
3172;DHT22;1597;51.572;6.992;2022-08-25T18:05:55;29.50;1.00
3172;DHT22;1597;51.572;6.992;2022-08-25T18:08:20;29.40;1.00
3172;DHT22;1597;51.572;6.992;2022-08-25T18:10:47;29.30;1.00
3172;DHT22;1597;51.572;6.992;2022-08-25T18:13:14;29.30;1.00
3172;DHT22;1597;51.572;6.992;2022-08-25T18:15:41;29.30;1.00